Time;durP1;ratioP1;P1;durP2;ratioP2;P2;SDS_P1;SDS_P2;PMS_P1;PMS_P2;Temp;Humidity;BMP_temperature;BMP_pressure;BME280_temperature;BME280_humidity;BME280_pressure;Samples;Min_cycle;Max_cycle;Signal;HPM_P1;HPM_P2
2022/09/07 00:01:27;;;;;;;7.75;5.00;;;21.90;99.90;;;;;;5031755;28;20029;-71
2022/09/07 00:03:54;;;;;;;6.18;4.63;;;22.00;99.90;;;;;;5032645;28;20025;-72
2022/09/07 00:06:20;;;;;;;5.10;4.22;;;22.00;99.90;;;;;;5032142;28;20041;-68
2022/09/07 00:08:46;;;;;;;5.88;5.03;;;22.00;99.90;;;;;;5031752;28;20033;-68
2022/09/07 00:11:14;;;;;;;7.45;4.75;;;21.80;99.90;;;;;;5032608;28;20017;-72
2022/09/07 00:13:42;;;;;;;7.55;5.10;;;21.90;99.90;;;;;;5032544;28;20433;-72
2022/09/07 00:16:12;;;;;;;7.10;4.75;;;21.90;99.90;;;;;;5031791;28;20030;-72
2022/09/07 00:18:38;;;;;;;6.07;5.47;;;22.00;99.90;;;;;;5030403;28;20120;-72
2022/09/07 00:21:07;;;;;;;7.75;5.53;;;21.90;99.90;;;;;;5030364;28;20409;-72
2022/09/07 00:23:34;;;;;;;9.80;7.05;;;21.90;99.90;;;;;;5032263;28;20033;-72
2022/09/07 00:26:02;;;;;;;9.88;8.60;;;21.90;99.90;;;;;;5031890;28;20025;-70
2022/09/07 00:28:28;;;;;;;11.95;10.50;;;21.90;99.90;;;;;;5032304;28;20018;-70
2022/09/07 00:30:54;;;;;;;9.35;8.55;;;21.90;99.90;;;;;;5032208;28;20025;-72
2022/09/07 00:33:20;;;;;;;12.15;10.93;;;21.80;99.90;;;;;;5031790;28;20359;-69
2022/09/07 00:35:46;;;;;;;12.48;11.20;;;21.80;99.90;;;;;;5030888;28;20044;-70
2022/09/07 00:38:11;;;;;;;12.85;11.55;;;21.70;99.90;;;;;;5030284;28;20017;-69
2022/09/07 00:40:37;;;;;;;11.93;10.68;;;21.80;99.90;;;;;;5032078;28;20025;-69
2022/09/07 00:43:04;;;;;;;13.00;11.70;;;21.60;99.90;;;;;;5030784;28;20021;-69
2022/09/07 00:45:30;;;;;;;14.73;11.00;;;21.60;99.90;;;;;;5031239;28;20018;-68
2022/09/07 00:47:56;;;;;;;12.93;10.35;;;21.60;99.90;;;;;;5029040;28;20022;-68
2022/09/07 00:50:43;;;;;;;14.73;11.57;;;21.50;99.90;;;;;;5031584;28;20355;-68
2022/09/07 00:53:11;;;;;;;11.95;10.48;;;21.60;99.90;;;;;;5029528;28;20104;-68
2022/09/07 00:55:41;;;;;;;13.20;11.88;;;21.60;99.90;;;;;;5029495;28;20498;-68
2022/09/07 00:58:07;;;;;;;11.90;10.20;;;21.40;99.90;;;;;;5031786;28;20032;-68
2022/09/07 01:00:34;;;;;;;13.70;10.80;;;21.40;99.90;;;;;;5031153;28;20378;-68
2022/09/07 01:03:02;;;;;;;14.40;11.77;;;21.40;99.90;;;;;;5029753;28;20025;-68
2022/09/07 01:05:48;;;;;;;15.88;11.65;;;21.40;99.90;;;;;;5031529;28;20060;-69
2022/09/07 01:08:14;;;;;;;12.90;11.50;;;21.20;99.90;;;;;;5031931;28;20366;-68
2022/09/07 01:10:40;;;;;;;14.65;12.13;;;21.30;99.90;;;;;;5032346;28;20076;-69
2022/09/07 01:13:06;;;;;;;12.68;11.30;;;21.40;99.90;;;;;;5031412;28;20029;-68
2022/09/07 01:16:06;;;;;;;14.10;11.13;;;21.40;99.90;;;;;;5030065;28;20068;-68
2022/09/07 01:18:39;;;;;;;14.65;10.63;;;21.40;99.90;;;;;;5028320;28;20045;-68
2022/09/07 01:21:16;;;;;;;;;;;21.40;99.90;;;;;;5035836;28;20021;-68
2022/09/07 01:23:45;;;;;;;15.05;12.30;;;21.50;99.90;;;;;;5035713;28;19916;-68
2022/09/07 01:26:35;;;;;;;15.15;10.93;;;21.50;99.90;;;;;;5034774;28;20072;-69
2022/09/07 01:29:24;;;;;;;13.38;11.18;;;21.30;99.90;;;;;;5035722;28;20033;-72
2022/09/07 01:31:56;;;;;;;13.23;11.20;;;21.40;99.90;;;;;;5035429;28;20456;-72
2022/09/07 01:34:24;;;;;;;13.02;11.20;;;21.30;99.90;;;;;;5036008;28;20025;-72
2022/09/07 01:37:02;;;;;;;14.95;11.65;;;21.30;99.90;;;;;;5035610;28;20042;-71
2022/09/07 01:39:46;;;;;;;13.13;11.68;;;21.10;99.90;;;;;;5035956;28;20087;-71
2022/09/07 01:42:16;;;;;;;13.20;11.10;;;21.00;99.90;;;;;;5035469;28;20474;-72
2022/09/07 01:44:45;;;;;;;12.15;10.80;;;21.00;99.90;;;;;;5035578;28;20018;-71
2022/09/07 01:47:17;;;;;;;12.13;10.68;;;21.00;99.90;;;;;;5035424;28;20108;-71
2022/09/07 01:49:52;;;;;;;15.55;10.88;;;21.00;99.90;;;;;;5035245;28;20028;-72
2022/09/07 01:52:33;;;;;;;11.57;10.25;;;21.10;99.90;;;;;;5035006;28;20025;-71
2022/09/07 01:55:06;;;;;;;10.77;9.77;;;21.00;99.90;;;;;;5015524;28;20030;-69
2022/09/07 01:57:39;;;;;;;12.70;10.75;;;20.90;99.90;;;;;;5015309;28;20057;-70
2022/09/07 02:00:09;;;;;;;11.88;10.48;;;20.80;99.90;;;;;;5016112;28;20018;-67
2022/09/07 02:02:47;;;;;;;12.95;10.60;;;20.80;99.90;;;;;;5019283;28;20030;-72
2022/09/07 02:05:22;;;;;;;11.60;10.25;;;20.80;99.90;;;;;;5035523;28;20025;-72
2022/09/07 02:07:54;;;;;;;11.57;9.40;;;20.80;99.90;;;;;;5035587;28;20049;-70
2022/09/07 02:10:26;;;;;;;10.40;8.93;;;20.70;99.90;;;;;;5035837;28;20497;-71
2022/09/07 02:13:14;;;;;;;13.23;10.60;;;20.60;99.90;;;;;;5033299;28;20506;-72
2022/09/07 02:16:02;;;;;;;11.27;10.15;;;20.60;99.90;;;;;;5035240;28;20041;-70
2022/09/07 02:18:35;;;;;;;13.68;10.95;;;20.60;99.90;;;;;;5035305;28;20025;-71
2022/09/07 02:21:03;;;;;;;13.05;10.70;;;20.60;99.90;;;;;;5035754;28;20079;-70
2022/09/07 02:23:33;;;;;;;14.70;11.25;;;20.40;99.90;;;;;;5035129;28;20024;-71
2022/09/07 02:26:08;;;;;;;14.68;12.23;;;20.40;99.90;;;;;;5035160;28;20021;-69
2022/09/07 02:28:35;;;;;;;10.40;9.23;;;20.50;99.90;;;;;;5034965;28;20112;-70
2022/09/07 02:31:01;;;;;;;12.10;9.65;;;20.60;99.90;;;;;;5034297;28;20032;-72
2022/09/07 02:33:28;;;;;;;12.73;11.30;;;20.60;99.90;;;;;;5033639;28;20018;-68
2022/09/07 02:35:54;;;;;;;13.98;10.40;;;20.50;99.90;;;;;;5034967;28;20037;-72
2022/09/07 02:38:20;;;;;;;13.55;11.93;;;20.60;99.90;;;;;;5034927;28;20024;-70
2022/09/07 02:40:51;;;;;;;13.10;11.70;;;20.70;99.90;;;;;;5034729;28;20057;-69
2022/09/07 02:43:17;;;;;;;12.18;10.23;;;20.70;99.90;;;;;;5034974;28;20473;-69
2022/09/07 02:46:09;;;;;;;12.82;10.02;;;20.80;99.90;;;;;;5035090;28;20025;-69
2022/09/07 02:48:58;;;;;;;12.88;10.57;;;20.80;99.90;;;;;;5033522;28;20044;-70
2022/09/07 02:51:35;;;;;;;11.75;10.18;;;20.90;99.90;;;;;;5034650;28;20040;-69
2022/09/07 02:54:15;;;;;;;12.45;10.63;;;21.00;99.90;;;;;;5034042;28;20026;-68
2022/09/07 02:56:58;;;;;;;14.73;12.13;;;21.00;99.90;;;;;;5034392;28;20045;-69
2022/09/07 02:59:43;;;;;;;15.75;12.73;;;21.00;99.90;;;;;;5031986;28;20032;-69
2022/09/07 03:02:27;;;;;;;14.43;11.75;;;21.00;99.90;;;;;;5034317;28;20167;-69
2022/09/07 03:05:22;;;;;;;13.27;11.85;;;20.80;99.90;;;;;;5034642;28;20021;-70
2022/09/07 03:08:00;;;;;;;11.80;10.48;;;20.80;99.90;;;;;;5034277;28;20033;-69
2022/09/07 03:10:27;;;;;;;13.57;12.18;;;20.80;99.90;;;;;;5034309;28;20025;-69
2022/09/07 03:12:53;;;;;;;13.32;11.93;;;20.90;99.90;;;;;;5033890;28;20030;-71
2022/09/07 03:15:21;;;;;;;12.40;10.93;;;20.90;99.90;;;;;;5034242;28;20042;-70
2022/09/07 03:17:47;;;;;;;14.70;12.35;;;20.90;99.90;;;;;;5034247;28;20056;-69
2022/09/07 03:20:14;;;;;;;13.95;12.00;;;20.90;99.90;;;;;;5034054;28;20022;-68
2022/09/07 03:22:41;;;;;;;14.65;12.52;;;21.00;99.90;;;;;;5032763;28;20536;-68
2022/09/07 03:25:07;;;;;;;13.82;12.15;;;21.00;99.90;;;;;;5033314;28;20021;-69
2022/09/07 03:27:32;;;;;;;13.20;11.57;;;20.80;99.90;;;;;;5033816;28;20034;-69
2022/09/07 03:29:58;;;;;;;14.15;12.18;;;20.70;99.90;;;;;;5033769;28;20021;-69
2022/09/07 03:32:29;;;;;;;16.55;12.98;;;20.70;99.90;;;;;;5033492;28;20037;-68
2022/09/07 03:34:54;;;;;;;17.67;13.13;;;20.70;99.90;;;;;;5032874;28;20030;-68
2022/09/07 03:37:20;;;;;;;15.57;12.27;;;20.70;99.90;;;;;;5033682;28;20037;-69
2022/09/07 03:39:46;;;;;;;13.50;11.85;;;20.80;99.90;;;;;;5033389;28;20067;-69
2022/09/07 03:42:11;;;;;;;15.40;13.02;;;20.80;99.90;;;;;;5032686;28;20095;-69
2022/09/07 03:44:37;;;;;;;14.98;13.38;;;20.80;99.90;;;;;;5032904;28;20462;-68
2022/09/07 03:47:03;;;;;;;16.83;12.60;;;20.90;99.90;;;;;;5032650;28;20032;-69
2022/09/07 03:49:28;;;;;;;15.30;12.02;;;20.80;99.90;;;;;;5032307;28;20022;-69
2022/09/07 03:51:54;;;;;;;14.18;12.70;;;20.80;99.90;;;;;;5031736;28;20029;-68
2022/09/07 03:54:21;;;;;;;13.80;12.13;;;20.80;99.90;;;;;;5032643;28;20476;-68
2022/09/07 03:56:46;;;;;;;15.60;13.40;;;20.80;99.90;;;;;;5033055;28;20068;-68
2022/09/07 03:59:12;;;;;;;16.90;12.15;;;20.90;99.90;;;;;;5033137;28;20060;-68
2022/09/07 04:01:38;;;;;;;14.50;12.60;;;20.80;99.90;;;;;;5033005;28;20030;-68
2022/09/07 04:04:04;;;;;;;17.73;14.57;;;20.80;99.90;;;;;;5033277;28;20026;-68
2022/09/07 04:06:31;;;;;;;15.18;12.98;;;20.80;99.90;;;;;;5031106;28;20028;-68
2022/09/07 04:09:03;;;;;;;16.60;12.40;;;20.90;99.90;;;;;;5031320;28;20126;-68
2022/09/07 04:11:30;;;;;;;15.48;13.23;;;20.90;99.90;;;;;;5012967;28;20029;-68
2022/09/07 04:13:56;;;;;;;18.33;13.68;;;20.90;99.90;;;;;;5029980;28;20065;-68
2022/09/07 04:16:24;;;;;;;15.57;13.98;;;20.90;99.90;;;;;;5030634;28;20099;-69
2022/09/07 04:18:53;;;;;;;18.75;13.38;;;20.90;99.90;;;;;;5030890;28;20017;-68
2022/09/07 04:21:20;;;;;;;16.63;12.88;;;20.90;99.90;;;;;;5032885;28;20032;-68
2022/09/07 04:23:47;;;;;;;14.02;12.23;;;20.90;99.90;;;;;;5032718;28;20034;-69
2022/09/07 04:26:18;;;;;;;18.55;13.27;;;20.80;99.90;;;;;;5032382;28;20560;-68
2022/09/07 04:28:44;;;;;;;16.92;14.07;;;20.60;99.90;;;;;;5032976;28;20052;-68
2022/09/07 04:31:12;;;;;;;17.05;14.23;;;20.70;99.90;;;;;;5032615;28;20045;-68
2022/09/07 04:33:37;;;;;;;15.60;13.25;;;20.70;99.90;;;;;;5032441;28;20553;-68
2022/09/07 04:36:03;;;;;;;15.20;13.60;;;20.70;99.90;;;;;;5028905;28;20117;-68
2022/09/07 04:38:29;;;;;;;18.13;14.85;;;20.60;99.90;;;;;;5012499;28;20033;-68
2022/09/07 04:41:00;;;;;;;18.80;15.05;;;20.40;99.90;;;;;;5011803;28;20087;-68
2022/09/07 04:43:28;;;;;;;15.75;14.10;;;20.40;99.90;;;;;;5013029;28;20026;-68
2022/09/07 04:45:53;;;;;;;15.68;13.25;;;20.00;99.90;;;;;;5028740;28;20075;-68
2022/09/07 04:48:19;;;;;;;19.17;14.05;;;19.90;99.90;;;;;;5032628;28;20097;-68
2022/09/07 04:50:45;;;;;;;19.27;15.18;;;20.00;99.90;;;;;;5032708;28;20025;-68
2022/09/07 04:53:11;;;;;;;17.20;14.77;;;20.20;99.90;;;;;;5032690;28;20103;-68
2022/09/07 04:55:36;;;;;;;18.23;15.30;;;20.30;99.90;;;;;;5034856;28;20025;-68
2022/09/07 04:58:02;;;;;;;16.65;14.75;;;20.30;99.90;;;;;;5036599;28;20029;-68
2022/09/07 05:00:28;;;;;;;15.73;14.13;;;20.40;99.90;;;;;;5029436;28;20034;-68
2022/09/07 05:02:54;;;;;;;15.77;14.02;;;20.40;99.90;;;;;;5029805;28;20029;-68
2022/09/07 05:05:19;;;;;;;18.98;14.70;;;20.40;99.90;;;;;;5016168;28;20030;-68
2022/09/07 05:07:45;;;;;;;15.35;13.35;;;20.40;99.90;;;;;;5012271;28;20024;-68
2022/09/07 05:10:11;;;;;;;16.88;12.85;;;20.40;99.90;;;;;;5016241;28;20100;-68
2022/09/07 05:12:36;;;;;;;14.63;12.40;;;20.30;99.90;;;;;;5016269;28;20064;-68
2022/09/07 05:15:03;;;;;;;16.15;12.55;;;20.30;99.90;;;;;;5022595;28;20440;-68
2022/09/07 05:17:29;;;;;;;18.00;13.77;;;20.30;99.90;;;;;;5036262;28;20021;-68
2022/09/07 05:19:56;;;;;;;19.05;14.13;;;20.30;99.90;;;;;;5035032;28;20052;-68
2022/09/07 05:22:23;;;;;;;18.27;13.80;;;20.30;99.90;;;;;;5035423;28;20180;-69
2022/09/07 05:24:49;;;;;;;15.07;13.45;;;20.40;99.90;;;;;;5036008;28;20033;-68
2022/09/07 05:27:15;;;;;;;17.00;13.20;;;20.40;99.90;;;;;;5024416;28;20018;-68
2022/09/07 05:29:41;;;;;;;19.40;13.85;;;20.40;99.90;;;;;;5016390;28;20026;-68
2022/09/07 05:32:07;;;;;;;18.58;15.38;;;20.30;99.90;;;;;;5030698;28;20504;-68
2022/09/07 05:34:33;;;;;;;18.15;13.93;;;20.40;99.90;;;;;;5022347;28;20026;-68
2022/09/07 05:37:00;;;;;;;16.35;14.45;;;20.40;99.90;;;;;;5019862;28;20390;-68
2022/09/07 05:39:26;;;;;;;18.35;14.45;;;20.40;99.90;;;;;;5034580;28;20030;-68
2022/09/07 05:41:52;;;;;;;16.30;14.55;;;20.30;99.90;;;;;;5035401;28;20564;-68
2022/09/07 05:44:18;;;;;;;22.23;14.65;;;20.30;99.90;;;;;;5035552;28;20028;-68
2022/09/07 05:46:44;;;;;;;15.70;14.07;;;20.30;99.90;;;;;;5035450;28;20041;-68
2022/09/07 05:49:10;;;;;;;18.48;12.55;;;20.40;99.90;;;;;;5035787;28;20032;-68
2022/09/07 05:51:36;;;;;;;17.98;13.43;;;20.30;99.90;;;;;;5031954;28;20549;-68
2022/09/07 05:54:01;;;;;;;23.15;14.43;;;20.30;99.90;;;;;;5026719;28;20038;-68
2022/09/07 05:56:27;;;;;;;19.77;14.30;;;20.10;99.90;;;;;;5027037;28;20458;-69
2022/09/07 05:58:53;;;;;;;18.95;14.82;;;20.20;99.90;;;;;;5025725;28;20026;-68
2022/09/07 06:01:19;;;;;;;22.08;14.82;;;20.20;99.90;;;;;;5024960;28;20025;-68
2022/09/07 06:03:44;;;;;;;19.27;14.25;;;20.30;99.90;;;;;;5023801;28;20386;-69
2022/09/07 06:06:17;;;;;;;15.80;13.20;;;20.20;99.90;;;;;;5024120;28;20030;-69
2022/09/07 06:08:48;;;;;;;18.20;15.02;;;20.20;99.90;;;;;;5034537;28;20112;-69
2022/09/07 06:11:17;;;;;;;21.88;15.85;;;20.30;99.90;;;;;;5024144;28;20032;-68
2022/09/07 06:13:43;;;;;;;22.58;17.98;;;20.30;99.90;;;;;;5031255;28;20041;-69
2022/09/07 06:16:10;;;;;;;25.92;18.85;;;20.40;99.90;;;;;;5022673;28;20030;-69
2022/09/07 06:18:44;;;;;;;30.55;22.02;;;20.40;99.90;;;;;;5025745;28;20111;-69
2022/09/07 06:21:19;;;;;;;32.30;24.35;;;20.30;99.90;;;;;;5023450;28;20030;-70
2022/09/07 06:23:45;;;;;;;41.17;31.20;;;20.40;99.90;;;;;;5028506;28;20394;-69
2022/09/07 06:26:13;;;;;;;47.67;30.48;;;20.40;99.90;;;;;;5033347;28;20549;-70
2022/09/07 06:28:41;;;;;;;43.30;31.42;;;20.40;99.90;;;;;;5023725;28;20028;-69
2022/09/07 06:31:09;;;;;;;51.47;31.52;;;20.50;99.90;;;;;;5034082;28;20540;-69
2022/09/07 06:33:35;;;;;;;41.55;31.83;;;20.50;99.90;;;;;;5031813;28;20025;-69
2022/09/07 06:36:04;;;;;;;45.05;32.20;;;20.50;99.90;;;;;;5034505;28;20552;-69
2022/09/07 06:38:31;;;;;;;41.83;30.48;;;20.50;99.90;;;;;;5030686;28;20031;-70
2022/09/07 06:41:07;;;;;;;43.25;31.95;;;20.60;99.90;;;;;;5033973;28;20035;-69
2022/09/07 06:43:33;;;;;;;46.95;33.60;;;20.50;99.90;;;;;;5033905;28;20504;-70
2022/09/07 06:45:59;;;;;;;52.53;36.95;;;20.60;99.90;;;;;;5000399;28;20026;-71
2022/09/07 06:48:25;;;;;;;53.22;38.33;;;20.60;99.90;;;;;;5015088;28;20475;-70
2022/09/07 06:51:02;;;;;;;48.88;34.20;;;20.60;99.90;;;;;;5027771;28;20083;-69
2022/09/07 06:53:33;;;;;;;43.65;33.10;;;20.60;99.90;;;;;;5034136;28;20105;-69
2022/09/07 06:56:00;;;;;;;50.15;36.95;;;20.50;99.90;;;;;;5032685;28;20037;-71
2022/09/07 06:58:27;;;;;;;47.28;34.45;;;20.30;99.90;;;;;;5040668;28;20034;-69
2022/09/07 07:00:53;;;;;;;50.88;36.65;;;20.40;99.90;;;;;;5032329;28;20083;-70
2022/09/07 07:03:20;;;;;;;49.22;35.63;;;20.40;99.90;;;;;;5033380;28;20024;-70
2022/09/07 07:05:52;;;;;;;52.83;35.33;;;20.40;99.90;;;;;;5037751;28;20031;-70
2022/09/07 07:08:18;;;;;;;;;;;20.50;99.90;;;;;;5042110;28;20104;-69
2022/09/07 07:10:44;;;;;;;46.60;33.30;;;20.50;99.90;;;;;;5047277;28;19991;-69
2022/09/07 07:13:09;;;;;;;44.50;34.90;;;20.50;99.90;;;;;;5036398;28;20037;-69
2022/09/07 07:15:35;;;;;;;49.35;36.22;;;20.50;99.90;;;;;;5039813;28;20069;-69
2022/09/07 07:18:01;;;;;;;45.35;33.95;;;20.60;99.90;;;;;;5044527;28;20449;-69
2022/09/07 07:20:27;;;;;;;51.38;36.67;;;20.50;99.90;;;;;;5044222;28;20023;-70
2022/09/07 07:22:53;;;;;;;53.35;35.55;;;20.60;99.90;;;;;;5036837;28;20033;-69
2022/09/07 07:25:19;;;;;;;44.72;33.67;;;20.50;99.90;;;;;;5049085;28;20029;-69
2022/09/07 07:27:46;;;;;;;47.92;36.55;;;20.60;99.90;;;;;;5037388;28;20056;-69
2022/09/07 07:30:16;;;;;;;54.03;37.90;;;20.70;99.90;;;;;;5036240;28;20100;-70
2022/09/07 07:32:42;;;;;;;48.50;34.17;;;20.80;99.90;;;;;;5033226;28;20029;-69
2022/09/07 07:35:09;;;;;;;51.35;37.20;;;20.80;99.90;;;;;;5031731;28;20187;-69
2022/09/07 07:37:36;;;;;;;46.40;34.53;;;20.90;99.90;;;;;;5036142;28;20057;-69
2022/09/07 07:40:06;;;;;;;47.30;36.80;;;20.90;99.90;;;;;;5032421;28;20033;-69
2022/09/07 07:42:32;;;;;;;51.85;38.25;;;20.90;99.90;;;;;;5032129;28;20044;-69
2022/09/07 07:44:59;;;;;;;47.10;35.55;;;20.90;99.90;;;;;;5033348;28;20082;-69
2022/09/07 07:47:25;;;;;;;43.20;32.58;;;20.90;99.90;;;;;;5029960;28;20036;-69
2022/09/07 07:49:51;;;;;;;45.55;34.90;;;20.90;99.90;;;;;;5031993;28;20025;-69
2022/09/07 07:52:17;;;;;;;41.58;32.30;;;21.00;99.90;;;;;;5030841;28;20020;-69
2022/09/07 07:54:44;;;;;;;42.15;33.80;;;21.00;99.90;;;;;;5031615;28;20029;-69
2022/09/07 07:57:10;;;;;;;45.45;34.65;;;21.00;99.90;;;;;;5030501;28;20065;-69
2022/09/07 07:59:36;;;;;;;40.78;29.85;;;21.20;99.90;;;;;;5032527;28;20029;-69
2022/09/07 08:02:04;;;;;;;44.97;35.58;;;21.20;99.90;;;;;;5038012;28;20082;-71
2022/09/07 08:04:32;;;;;;;41.75;32.15;;;21.20;99.90;;;;;;5032761;28;20022;-69
2022/09/07 08:06:57;;;;;;;43.63;30.67;;;21.40;99.90;;;;;;5032326;28;20382;-68
2022/09/07 08:09:23;;;;;;;39.33;29.48;;;21.30;99.90;;;;;;5047114;28;20040;-69
2022/09/07 08:11:48;;;;;;;35.17;27.63;;;21.10;99.90;;;;;;5032301;28;20018;-70
2022/09/07 08:14:15;;;;;;;35.92;26.30;;;21.30;99.90;;;;;;5031767;28;20037;-68
2022/09/07 08:16:44;;;;;;;34.58;27.38;;;21.40;99.90;;;;;;5026619;28;20091;-69
2022/09/07 08:19:09;;;;;;;32.95;26.60;;;21.50;99.90;;;;;;5048027;28;20500;-70
2022/09/07 08:21:35;;;;;;;31.00;25.10;;;21.40;99.90;;;;;;5035798;28;20056;-72
2022/09/07 08:24:01;;;;;;;33.95;25.88;;;21.40;99.90;;;;;;5045167;28;20033;-70
2022/09/07 08:26:27;;;;;;;36.05;27.33;;;21.60;99.90;;;;;;5033479;28;20024;-72
2022/09/07 08:28:54;;;;;;;32.90;26.25;;;21.70;99.90;;;;;;5033410;28;20029;-71
2022/09/07 08:31:19;;;;;;;30.67;24.08;;;21.70;99.90;;;;;;5035915;28;20018;-70
2022/09/07 08:33:45;;;;;;;30.05;24.13;;;21.80;99.90;;;;;;5034077;28;20029;-69
2022/09/07 08:36:16;;;;;;;27.55;21.30;;;21.90;99.90;;;;;;5032468;28;20037;-69
2022/09/07 08:38:42;;;;;;;24.90;21.40;;;22.00;99.90;;;;;;5033344;28;20030;-71
2022/09/07 08:41:27;;;;;;;26.30;21.92;;;22.10;99.90;;;;;;5045204;28;20492;-70
2022/09/07 08:44:11;;;;;;;24.98;20.55;;;22.10;99.90;;;;;;5041532;28;20040;-71
2022/09/07 08:47:05;;;;;;;29.70;21.75;;;22.10;99.90;;;;;;5034986;28;20025;-71
2022/09/07 08:50:01;;;;;;;25.83;19.65;;;22.30;99.90;;;;;;5019363;28;20528;-70
2022/09/07 08:52:46;;;;;;;24.92;18.27;;;22.40;99.90;;;;;;5038677;28;20028;-70
2022/09/07 08:55:30;;;;;;;20.65;16.92;;;22.50;99.90;;;;;;5043523;28;20098;-70
2022/09/07 08:58:15;;;;;;;20.45;15.88;;;22.50;99.90;;;;;;5044182;28;20867;-71
2022/09/07 09:00:40;;;;;;;21.33;14.65;;;22.40;99.90;;;;;;5042386;28;20491;-71
2022/09/07 09:03:20;;;;;;;20.85;14.02;;;22.40;99.90;;;;;;5042123;28;20017;-70
2022/09/07 09:06:09;;;;;;;19.52;14.43;;;22.40;99.90;;;;;;5039872;28;20624;-70
2022/09/07 09:08:59;;;;;;;20.95;15.10;;;22.50;99.90;;;;;;5040986;28;20021;-70
2022/09/07 09:11:53;;;;;;;17.85;14.57;;;22.60;99.90;;;;;;5030761;28;20036;-70
2022/09/07 09:14:52;;;;;;;19.35;13.10;;;22.50;99.90;;;;;;5029626;28;20037;-70
2022/09/07 09:17:34;;;;;;;16.67;11.05;;;22.60;99.90;;;;;;5030820;28;20087;-69
2022/09/07 09:20:18;;;;;;;15.25;11.52;;;22.80;99.90;;;;;;5030811;28;20093;-70
2022/09/07 09:22:44;;;;;;;13.75;9.32;;;22.90;99.90;;;;;;5033668;28;20025;-70
2022/09/07 09:25:23;;;;;;;11.80;8.60;;;23.10;99.90;;;;;;5032850;28;20025;-69
2022/09/07 09:27:49;;;;;;;11.50;6.88;;;23.20;99.90;;;;;;5030800;28;20022;-70
2022/09/07 09:30:18;;;;;;;9.32;5.88;;;23.40;99.90;;;;;;5032918;28;20032;-70
2022/09/07 09:32:47;;;;;;;9.45;5.78;;;23.50;99.90;;;;;;5033862;28;20021;-70
2022/09/07 09:35:22;;;;;;;12.40;5.93;;;23.60;99.90;;;;;;5032964;28;20025;-71
2022/09/07 09:37:48;;;;;;;12.52;6.25;;;23.80;99.90;;;;;;5035735;28;20029;-71
2022/09/07 09:40:34;;;;;;;11.07;5.85;;;23.90;99.90;;;;;;5045101;28;20366;-70
2022/09/07 09:43:22;;;;;;;11.63;5.75;;;24.00;99.90;;;;;;5039895;28;20103;-70
2022/09/07 09:45:52;;;;;;;9.70;4.63;;;24.10;99.90;;;;;;5032443;28;20087;-71
2022/09/07 09:48:33;;;;;;;10.07;5.30;;;24.20;99.90;;;;;;5036803;28;20033;-70
2022/09/07 09:51:01;;;;;;;12.07;4.15;;;24.40;99.90;;;;;;5042134;28;20044;-69
2022/09/07 09:53:33;;;;;;;8.20;4.85;;;24.60;99.90;;;;;;5040903;28;20097;-69
2022/09/07 09:56:03;;;;;;;10.60;4.22;;;24.60;99.90;;;;;;5037650;28;20025;-70
2022/09/07 09:58:31;;;;;;;7.40;3.30;;;24.70;99.90;;;;;;5041513;28;20096;-69
2022/09/07 10:01:25;;;;;;;5.03;2.72;;;24.80;99.90;;;;;;5044267;28;20024;-70
2022/09/07 10:03:50;;;;;;;7.40;3.15;;;24.80;99.90;;;;;;5034316;28;20081;-70
2022/09/07 10:06:18;;;;;;;6.65;2.88;;;25.00;99.90;;;;;;5040469;28;20462;-69
2022/09/07 10:08:58;;;;;;;7.93;3.08;;;25.20;99.90;;;;;;5043330;28;20027;-70
2022/09/07 10:11:43;;;;;;;5.22;2.30;;;25.30;99.90;;;;;;5040899;28;20369;-70
2022/09/07 10:14:25;;;;;;;8.20;2.40;;;25.40;99.90;;;;;;5039014;28;20029;-70
2022/09/07 10:16:50;;;;;;;7.75;2.05;;;25.40;99.90;;;;;;5029933;28;20044;-69
2022/09/07 10:19:35;;;;;;;4.65;2.15;;;25.30;99.90;;;;;;5045476;28;20021;-70
2022/09/07 10:22:04;;;;;;;7.15;2.55;;;25.30;99.90;;;;;;5042496;28;20022;-71
2022/09/07 10:24:36;;;;;;;8.75;2.08;;;25.60;99.90;;;;;;5045662;28;20556;-70
2022/09/07 10:27:23;;;;;;;7.95;2.20;;;25.80;99.90;;;;;;5036692;28;20029;-70
2022/09/07 10:29:49;;;;;;;9.38;2.10;;;25.90;99.90;;;;;;5026493;28;20112;-70
2022/09/07 10:32:40;;;;;;;6.43;2.17;;;26.20;99.90;;;;;;5043010;28;20100;-70
2022/09/07 10:35:09;;;;;;;3.58;2.10;;;26.20;99.90;;;;;;5037227;28;20033;-71
2022/09/07 10:37:54;;;;;;;4.18;1.80;;;26.10;99.90;;;;;;5050078;28;20045;-70
2022/09/07 10:40:40;;;;;;;5.15;2.30;;;26.00;99.90;;;;;;5021742;28;20025;-69
2022/09/07 10:43:22;;;;;;;6.25;2.13;;;25.90;99.90;;;;;;5030218;28;20034;-71
2022/09/07 10:45:57;;;;;;;5.05;2.05;;;26.10;99.90;;;;;;5026960;28;20152;-71
2022/09/07 10:48:45;;;;;;;7.40;2.17;;;26.30;99.90;;;;;;5032812;28;20477;-71
2022/09/07 10:51:31;;;;;;;5.50;2.10;;;26.40;99.90;;;;;;5024338;28;20030;-71
2022/09/07 10:54:07;;;;;;;4.32;1.73;;;26.60;99.90;;;;;;5031537;28;20026;-70
2022/09/07 10:56:52;;;;;;;4.97;1.90;;;26.50;99.90;;;;;;5030676;28;20042;-70
2022/09/07 10:59:53;;;;;;;8.02;2.05;;;26.40;99.90;;;;;;5028273;28;20025;-70
2022/09/07 11:02:24;;;;;;;5.45;1.73;;;26.60;99.90;;;;;;5019617;28;20128;-70
2022/09/07 11:05:24;;;;;;;5.10;1.73;;;26.60;99.90;;;;;;5027619;28;20388;-71
2022/09/07 11:07:56;;;;;;;8.60;2.03;;;26.70;99.90;;;;;;5023677;28;20031;-71
2022/09/07 11:10:47;;;;;;;4.13;1.70;;;26.50;99.90;;;;;;5025832;28;20031;-71
2022/09/07 11:13:21;;;;;;;7.25;2.10;;;26.60;99.90;;;;;;5035237;28;20090;-70
2022/09/07 11:16:00;;;;;;;5.80;1.65;;;26.90;99.90;;;;;;5038046;28;20490;-71
2022/09/07 11:18:31;;;;;;;5.07;1.75;;;27.00;99.90;;;;;;5023912;28;20033;-71
2022/09/07 11:21:00;;;;;;;4.68;1.75;;;27.10;99.90;;;;;;5031066;28;20060;-71
2022/09/07 11:23:35;;;;;;;3.80;1.13;;;27.30;99.90;;;;;;5038917;28;20051;-69
2022/09/07 11:26:11;;;;;;;5.35;1.58;;;27.20;99.90;;;;;;5026911;28;20018;-71
2022/09/07 11:28:45;;;;;;;4.88;1.48;;;27.10;99.90;;;;;;5029731;28;20475;-71
2022/09/07 11:31:22;;;;;;;5.47;1.55;;;27.20;99.90;;;;;;5038563;28;20048;-71
2022/09/07 11:34:11;;;;;;;4.07;1.38;;;27.10;99.90;;;;;;5030651;28;20104;-71
2022/09/07 11:36:54;;;;;;;3.20;1.10;;;26.90;99.90;;;;;;5031775;28;20077;-71
2022/09/07 11:39:48;;;;;;;3.50;1.25;;;27.00;99.90;;;;;;5032041;28;20030;-70
2022/09/07 11:42:34;;;;;;;2.47;1.30;;;26.80;99.90;;;;;;5029092;28;20033;-71
2022/09/07 11:45:13;;;;;;;4.78;1.40;;;27.20;99.90;;;;;;5028830;28;20025;-71
2022/09/07 11:48:20;;;;;;;3.38;1.17;;;27.40;99.90;;;;;;5032877;28;20503;-71
2022/09/07 11:50:51;;;;;;;4.60;1.60;;;27.40;99.70;;;;;;5027643;28;20037;-71
2022/09/07 11:53:22;;;;;;;1.83;1.05;;;27.30;99.50;;;;;;5029612;28;20477;-70
2022/09/07 11:55:55;;;;;;;5.38;1.45;;;27.00;99.10;;;;;;5029393;28;20071;-70
2022/09/07 11:58:20;;;;;;;4.90;1.33;;;26.50;99.40;;;;;;5039352;28;20021;-71
2022/09/07 12:01:23;;;;;;;3.75;1.55;;;26.50;99.90;;;;;;5043797;28;20428;-71
2022/09/07 12:04:23;;;;;;;6.13;1.30;;;26.30;99.90;;;;;;5031600;28;20039;-70
2022/09/07 12:07:11;;;;;;;3.42;1.05;;;26.30;99.60;;;;;;5037142;28;20468;-69
2022/09/07 12:10:09;;;;;;;5.68;1.35;;;26.60;98.80;;;;;;5036794;28;20033;-71
2022/09/07 12:12:46;;;;;;;5.05;1.33;;;26.60;98.10;;;;;;5039649;28;20397;-70
2022/09/07 12:15:17;;;;;;;3.88;1.30;;;26.80;98.40;;;;;;5037528;28;20037;-70
2022/09/07 12:18:07;;;;;;;2.50;0.98;;;27.10;99.20;;;;;;5033926;28;20036;-70
2022/09/07 12:20:47;;;;;;;5.28;1.45;;;27.40;97.30;;;;;;5039356;28;20029;-70
2022/09/07 12:23:15;;;;;;;1.77;1.10;;;27.30;97.00;;;;;;5047572;28;20087;-69
2022/09/07 12:25:43;;;;;;;5.45;1.02;;;27.00;96.30;;;;;;5036866;28;20481;-70
2022/09/07 12:28:23;;;;;;;3.78;1.10;;;26.90;97.40;;;;;;5025649;28;20033;-70
2022/09/07 12:30:54;;;;;;;5.00;1.30;;;27.00;97.60;;;;;;5027427;28;20033;-70
2022/09/07 12:33:29;;;;;;;3.17;1.00;;;27.10;97.70;;;;;;5031349;28;20489;-69
2022/09/07 12:35:57;;;;;;;3.28;1.17;;;27.30;97.90;;;;;;5044104;28;20026;-69
2022/09/07 12:38:29;;;;;;;4.85;1.30;;;27.40;97.40;;;;;;5027803;28;20481;-70
2022/09/07 12:41:21;;;;;;;3.87;1.30;;;27.50;97.20;;;;;;5026627;28;20054;-70
2022/09/07 12:43:47;;;;;;;7.70;1.15;;;27.50;97.80;;;;;;5013740;28;20284;-70
2022/09/07 12:46:32;;;;;;;3.22;0.93;;;27.40;96.90;;;;;;5027689;28;20036;-69
2022/09/07 12:49:38;;;;;;;4.43;1.20;;;27.00;97.20;;;;;;5019463;28;20099;-69
2022/09/07 12:52:44;;;;;;;3.85;1.02;;;26.80;97.50;;;;;;5028264;28;20059;-71
2022/09/07 12:55:11;;;;;;;5.00;1.25;;;26.60;98.30;;;;;;5019486;28;20034;-70
2022/09/07 12:58:10;;;;;;;3.70;0.95;;;26.60;97.40;;;;;;5026340;28;20041;-69
2022/09/07 13:01:04;;;;;;;3.80;1.30;;;26.60;97.60;;;;;;5025223;28;20017;-69